Saline City, Missouri
Current Conditions -  °F | °C
As of 9:15 AM on Thursday 18 Dec 2014 (Local Time) from KVER Reporting Station
Light Snow Light Snow  
Wind Chill: 26°   Ceiling: 600
Heat Index: 30°   Visibility: 2.5mi
Dew Point: 29°   Wind: 5mph
Humidity: 96%   Direction: 90°E
Pressure: 30.26"   Gusts: NA
Location:  39.2023°N, 93.0277°W
Report Text: KVER 181515Z AUTO 09004KT 2 1/2SM -SN BKN006 BKN022 OVC029 M01/M01 A3026 RMK AO2 T10091015
Loading
Personal Weather Stations






























Interactive Weather Map New forecast layout! Learn more

10-Day Weather Forecast

Advertisements
Track Severe Weather on mobile